Time;durP1;ratioP1;P1;durP2;ratioP2;P2;SDS_P1;SDS_P2;PMS_P1;PMS_P2;Temp;Humidity;BMP_temperature;BMP_pressure;BME280_temperature;BME280_humidity;BME280_pressure;Samples;Min_cycle;Max_cycle;Signal;HPM_P1;HPM_P2
2021/11/03 00:02:27;;;;;;;3.17;1.38;;;;;;;7.26;100.00;99300.56;5284324;28;20032;-79
2021/11/03 00:04:57;;;;;;;5.00;1.58;;;;;;;7.24;100.00;99297.19;5283318;28;20504;-80
2021/11/03 00:07:30;;;;;;;3.70;1.50;;;;;;;7.28;100.00;99293.53;5284451;28;20445;-80
2021/11/03 00:10:03;;;;;;;2.15;1.33;;;;;;;7.30;100.00;99296.00;5267081;28;20304;-80
2021/11/03 00:12:34;;;;;;;3.15;1.30;;;;;;;7.27;100.00;99292.66;5268722;28;20026;-81
2021/11/03 00:15:06;;;;;;;3.38;1.30;;;;;;;7.22;100.00;99294.63;5264956;28;20032;-79
2021/11/03 00:17:37;;;;;;;2.05;1.30;;;;;;;7.20;100.00;99287.81;5284073;28;20490;-80
2021/11/03 00:20:09;;;;;;;2.15;1.10;;;;;;;7.20;100.00;99285.19;5267723;28;20042;-80
2021/11/03 00:22:40;;;;;;;1.95;1.10;;;;;;;7.19;100.00;99283.50;5267252;28;20024;-80
2021/11/03 00:25:10;;;;;;;2.50;0.90;;;;;;;7.13;100.00;99276.00;5265051;28;20016;-80
2021/11/03 00:27:40;;;;;;;1.45;0.90;;;;;;;7.21;100.00;99276.50;5281337;28;20370;-78
2021/11/03 00:30:11;;;;;;;1.85;0.93;;;;;;;7.19;100.00;99270.53;5273450;28;20024;-80
2021/11/03 00:32:41;;;;;;;1.30;0.90;;;;;;;7.21;100.00;99279.09;5277559;28;20035;-80
2021/11/03 00:35:12;;;;;;;1.00;0.70;;;;;;;7.13;100.00;99281.19;5288308;28;20027;-80
2021/11/03 00:37:42;;;;;;;1.52;0.68;;;;;;;7.03;100.00;99278.13;5277098;28;20035;-79
2021/11/03 00:40:13;;;;;;;2.80;0.80;;;;;;;6.97;100.00;99285.34;5289224;28;20022;-81
2021/11/03 00:42:43;;;;;;;1.60;0.82;;;;;;;6.92;100.00;99284.69;5279952;28;20058;-80
2021/11/03 00:45:14;;;;;;;1.88;0.68;;;;;;;6.82;100.00;99284.22;5287888;28;20059;-79
2021/11/03 00:47:44;;;;;;;1.48;0.70;;;;;;;6.68;100.00;99290.88;5277660;28;20545;-79
2021/11/03 00:50:15;;;;;;;1.00;0.55;;;;;;;6.71;100.00;99288.16;5276560;28;20053;-80
2021/11/03 00:52:46;;;;;;;1.83;0.73;;;;;;;6.59;100.00;99288.66;5277441;28;20027;-79
2021/11/03 00:55:16;;;;;;;1.48;0.75;;;;;;;6.46;100.00;99280.50;5286345;28;20028;-79
2021/11/03 00:57:47;;;;;;;1.00;0.60;;;;;;;6.50;100.00;99286.41;5286839;28;20054;-79
2021/11/03 01:00:19;;;;;;;1.33;0.50;;;;;;;6.34;100.00;99290.53;5279834;28;20016;-79
2021/11/03 01:02:50;;;;;;;1.00;0.63;;;;;;;6.19;100.00;99288.50;5277237;28;20130;-80
2021/11/03 01:05:23;;;;;;;1.08;0.70;;;;;;;6.07;100.00;99299.38;5286286;28;20050;-78
2021/11/03 01:07:53;;;;;;;1.33;0.77;;;;;;;5.93;100.00;99301.63;5287721;28;20027;-81
2021/11/03 01:10:24;;;;;;;2.05;0.80;;;;;;;6.07;100.00;99299.38;5291807;28;20503;-79
2021/11/03 01:12:55;;;;;;;0.77;0.55;;;;;;;6.15;100.00;99299.91;5291615;28;20031;-79
2021/11/03 01:15:25;;;;;;;0.98;0.60;;;;;;;6.18;100.00;99294.59;5279252;28;20463;-79
2021/11/03 01:17:56;;;;;;;0.93;0.70;;;;;;;6.28;100.00;99295.97;5276357;28;20463;-79
2021/11/03 01:20:27;;;;;;;2.15;1.00;;;;;;;6.31;100.00;99294.09;5290859;28;20030;-80
2021/11/03 01:22:57;;;;;;;1.90;1.00;;;;;;;5.89;100.00;99298.31;5277304;28;20105;-79
2021/11/03 01:25:28;;;;;;;1.88;0.70;;;;;;;5.94;100.00;99293.78;5280700;28;20305;-80
2021/11/03 01:27:58;;;;;;;0.88;0.47;;;;;;;6.00;100.00;99287.53;5291250;28;20030;-80
2021/11/03 01:30:29;;;;;;;0.88;0.60;;;;;;;6.03;100.00;99283.09;5290526;28;20028;-80
2021/11/03 01:32:59;;;;;;;1.02;0.60;;;;;;;5.97;100.00;99282.47;5290205;28;20039;-80
2021/11/03 01:35:30;;;;;;;1.30;0.82;;;;;;;5.64;100.00;99279.34;5278080;28;20023;-79
2021/11/03 01:38:01;;;;;;;1.55;1.10;;;;;;;5.60;100.00;99276.94;5280868;28;20019;-79
2021/11/03 01:40:34;;;;;;;1.27;0.95;;;;;;;5.51;100.00;99282.44;5290280;28;20050;-79
2021/11/03 01:43:06;;;;;;;1.85;1.25;;;;;;;5.53;100.00;99278.03;5279823;28;20084;-79
2021/11/03 01:45:37;;;;;;;1.95;1.20;;;;;;;5.54;100.00;99278.00;5270643;28;20031;-78
2021/11/03 01:48:10;;;;;;;1.45;0.98;;;;;;;5.58;100.00;99278.72;5287007;28;20242;-79
2021/11/03 01:50:48;;;;;;;2.10;1.20;;;;;;;5.59;100.00;99276.06;5277946;28;20028;-79
2021/11/03 01:53:25;;;;;;;2.05;1.17;;;;;;;5.44;100.00;99279.22;5289725;28;20027;-79
2021/11/03 01:56:02;;;;;;;2.15;1.33;;;;;;;5.52;100.00;99278.94;5286376;28;20115;-79
2021/11/03 01:58:36;;;;;;;2.50;1.20;;;;;;;5.58;100.00;99289.09;5289923;28;20073;-79
2021/11/03 02:01:07;;;;;;;3.92;1.45;;;;;;;5.62;100.00;99290.66;5280058;28;20382;-80
2021/11/03 02:03:40;;;;;;;2.22;1.30;;;;;;;5.35;100.00;99290.81;5289678;28;20035;-80
2021/11/03 02:06:14;;;;;;;3.15;1.20;;;;;;;5.32;100.00;99278.81;5289320;28;20031;-78
2021/11/03 02:08:46;;;;;;;1.88;1.15;;;;;;;5.32;100.00;99280.56;5277313;28;20027;-78
2021/11/03 02:11:20;;;;;;;1.63;1.20;;;;;;;5.39;100.00;99293.25;5279085;28;20479;-80
2021/11/03 02:13:51;;;;;;;2.22;1.35;;;;;;;5.43;100.00;99292.22;5288301;28;20031;-80
2021/11/03 02:16:22;;;;;;;2.20;1.35;;;;;;;5.39;100.00;99288.06;5289434;28;20072;-79
2021/11/03 02:18:52;;;;;;;2.08;1.50;;;;;;;5.46;100.00;99281.75;5289902;28;20031;-80
2021/11/03 02:21:43;;;;;;;2.75;1.40;;;;;;;5.58;100.00;99289.09;5279740;28;20387;-79
2021/11/03 02:24:19;;;;;;;2.53;1.48;;;;;;;5.68;100.00;99283.53;5286927;28;20015;-80
2021/11/03 02:26:51;;;;;;;2.17;1.38;;;;;;;5.66;100.00;99280.16;5270461;28;20031;-80
2021/11/03 02:29:23;;;;;;;3.60;1.35;;;;;;;5.83;100.00;99279.53;5280809;28;20015;-80
2021/11/03 02:32:06;;;;;;;4.70;1.63;;;;;;;5.79;100.00;99275.38;5289646;28;20112;-80
2021/11/03 02:34:37;;;;;;;2.40;1.60;;;;;;;5.87;100.00;99270.75;5274734;28;20028;-80
2021/11/03 02:37:29;;;;;;;2.20;1.42;;;;;;;5.94;100.00;99277.41;5289924;28;20026;-80
2021/11/03 02:40:40;;;;;;;2.67;1.60;;;;;;;5.99;100.00;99276.34;5272733;28;20105;-80
2021/11/03 02:43:19;;;;;;;3.25;1.40;;;;;;;6.10;100.00;99284.53;5258967;28;20372;-80
2021/11/03 02:45:56;;;;;;;3.08;1.27;;;;;;;6.16;100.00;99283.44;5289451;28;20031;-80
2021/11/03 02:48:30;;;;;;;2.72;1.50;;;;;;;6.02;100.00;99284.00;5271868;28;20028;-80
2021/11/03 02:51:10;;;;;;;2.38;1.63;;;;;;;6.03;100.00;99282.22;5280372;28;20442;-80
2021/11/03 02:53:47;;;;;;;2.83;1.70;;;;;;;6.03;100.00;99284.81;5278474;28;20090;-80
2021/11/03 02:56:25;;;;;;;2.30;1.60;;;;;;;6.07;100.00;99284.66;5270802;28;20015;-80
2021/11/03 02:58:55;;;;;;;2.72;1.50;;;;;;;6.13;100.00;99288.75;5271069;28;20016;-80
2021/11/03 03:01:31;;;;;;;2.38;1.50;;;;;;;6.07;100.00;99291.59;5288880;28;20031;-80
2021/11/03 03:04:07;;;;;;;3.90;1.80;;;;;;;6.13;100.00;99283.56;5289341;28;20031;-80
2021/11/03 03:06:38;;;;;;;3.50;1.90;;;;;;;6.07;100.00;99286.41;5277138;28;20020;-80
2021/11/03 03:09:09;;;;;;;2.70;1.70;;;;;;;6.12;100.00;99287.06;5289570;28;20023;-80
2021/11/03 03:11:42;;;;;;;2.38;1.50;;;;;;;6.30;100.00;99288.97;5276230;28;20035;-80
2021/11/03 03:14:13;;;;;;;2.60;1.60;;;;;;;6.34;100.00;99286.19;5278284;28;20028;-80
2021/11/03 03:16:46;;;;;;;2.70;1.60;;;;;;;6.35;100.00;99289.63;5287614;28;20123;-79
2021/11/03 03:19:17;;;;;;;2.65;1.48;;;;;;;6.20;100.00;99295.38;5289003;28;20035;-80
2021/11/03 03:21:48;;;;;;;2.38;1.60;;;;;;;6.27;100.00;99286.50;5278599;28;20433;-80
2021/11/03 03:24:18;;;;;;;5.78;1.80;;;;;;;6.16;100.00;99299.00;5287505;28;20477;-79
2021/11/03 03:26:49;;;;;;;2.58;1.55;;;;;;;6.15;100.00;99292.13;5288980;28;20027;-80
2021/11/03 03:29:19;;;;;;;2.95;1.70;;;;;;;6.23;100.00;99301.31;5289189;28;20076;-80
2021/11/03 03:31:49;;;;;;;3.67;2.00;;;;;;;6.22;100.00;99293.63;5288541;28;20085;-81
2021/11/03 03:34:23;;;;;;;3.45;2.33;;;;;;;6.38;100.00;99299.88;5277938;28;20015;-80
2021/11/03 03:36:55;;;;;;;4.40;2.40;;;;;;;6.22;100.00;99298.81;5278610;28;20023;-80
2021/11/03 03:39:26;;;;;;;3.85;2.45;;;;;;;6.26;100.00;99301.19;5271527;28;20134;-80
2021/11/03 03:42:05;;;;;;;4.90;2.20;;;;;;;6.28;100.00;99301.97;5274902;28;20103;-79
2021/11/03 03:44:37;;;;;;;3.28;1.77;;;;;;;6.34;100.00;99306.09;5288155;28;20027;-79
2021/11/03 03:47:08;;;;;;;3.53;2.03;;;;;;;6.35;100.00;99305.19;5272979;28;20081;-78
2021/11/03 03:49:39;;;;;;;4.07;2.20;;;;;;;6.39;100.00;99301.59;5278551;28;20469;-80
2021/11/03 03:52:10;;;;;;;3.55;2.35;;;;;;;6.44;100.00;99300.47;5276805;28;20031;-81
2021/11/03 03:54:40;;;;;;;4.10;2.30;;;;;;;6.42;100.00;99306.66;5276451;28;20280;-80
2021/11/03 03:57:11;;;;;;;5.18;2.50;;;;;;;6.39;100.00;99299.81;5277988;28;20070;-79
2021/11/03 03:59:41;;;;;;;3.30;2.17;;;;;;;6.39;100.00;99305.00;5277675;28;20024;-79
2021/11/03 04:02:12;;;;;;;3.45;2.25;;;;;;;6.40;100.00;99298.09;5287713;28;20026;-80
2021/11/03 04:04:43;;;;;;;4.65;2.75;;;;;;;6.47;100.00;99310.75;5287352;28;20081;-80
2021/11/03 04:07:14;;;;;;;4.30;2.38;;;;;;;6.49;100.00;99313.28;5277268;28;20481;-80
2021/11/03 04:09:44;;;;;;;4.10;2.30;;;;;;;6.52;100.00;99310.56;5287494;28;20039;-79
2021/11/03 04:12:14;;;;;;;5.30;2.67;;;;;;;6.42;100.00;99312.66;5287930;28;20130;-80
2021/11/03 04:14:44;;;;;;;4.78;2.60;;;;;;;6.38;100.00;99313.69;5278352;28;20407;-80
2021/11/03 04:17:15;;;;;;;4.93;2.67;;;;;;;6.37;100.00;99308.56;5277116;28;20167;-80
2021/11/03 04:19:45;;;;;;;4.47;2.85;;;;;;;6.32;100.00;99315.69;5277903;28;20023;-79
2021/11/03 04:22:15;;;;;;;4.68;2.90;;;;;;;6.34;100.00;99311.28;5286984;28;20037;-78
2021/11/03 04:24:46;;;;;;;4.80;2.95;;;;;;;6.38;100.00;99312.84;5286929;28;20395;-79
2021/11/03 04:27:16;;;;;;;5.57;2.60;;;;;;;6.33;100.00;99302.66;5277128;28;20032;-80
2021/11/03 04:29:47;;;;;;;4.53;3.00;;;;;;;6.33;100.00;99307.00;5276519;28;20019;-80
2021/11/03 04:32:17;;;;;;;5.55;3.22;;;;;;;6.27;100.00;99305.47;5277503;28;20559;-79
2021/11/03 04:34:47;;;;;;;5.43;3.10;;;;;;;6.20;100.00;99303.16;5276506;28;20028;-79
2021/11/03 04:37:18;;;;;;;5.03;3.53;;;;;;;6.33;100.00;99296.63;5277473;28;20023;-80
2021/11/03 04:39:48;;;;;;;6.18;3.80;;;;;;;6.34;100.00;99295.72;5277699;28;20060;-79
2021/11/03 04:42:18;;;;;;;5.78;3.50;;;;;;;6.34;100.00;99298.31;5287902;28;20034;-79
2021/11/03 04:44:48;;;;;;;6.15;3.30;;;;;;;6.25;100.00;99293.50;5290417;28;20118;-79
2021/11/03 04:47:19;;;;;;;4.80;3.00;;;;;;;6.11;100.00;99300.94;5281661;28;20015;-80
2021/11/03 04:49:49;;;;;;;5.47;3.15;;;;;;;6.08;100.00;99306.25;5281184;28;20028;-80
2021/11/03 04:52:19;;;;;;;5.68;3.20;;;;;;;6.03;100.00;99303.81;5292254;28;20028;-80
2021/11/03 04:54:50;;;;;;;6.43;3.60;;;;;;;6.02;100.00;99302.13;5289609;28;20031;-79
2021/11/03 04:57:20;;;;;;;5.28;3.45;;;;;;;5.94;100.00;99298.16;5290035;28;20032;-80
2021/11/03 04:59:51;;;;;;;6.18;3.45;;;;;;;5.93;100.00;99291.28;5281502;28;20170;-79
2021/11/03 05:02:22;;;;;;;6.07;3.40;;;;;;;5.87;100.00;99286.28;5286422;28;20081;-79
2021/11/03 05:04:53;;;;;;;5.05;3.33;;;;;;;5.84;100.00;99291.59;5284398;28;20027;-80
2021/11/03 05:07:23;;;;;;;6.20;3.80;;;;;;;5.79;100.00;99293.53;5281425;28;20030;-79
2021/11/03 05:09:53;;;;;;;5.43;3.17;;;;;;;5.83;100.00;99289.91;5291383;28;20051;-80
2021/11/03 05:12:23;;;;;;;7.38;3.88;;;;;;;5.79;100.00;99294.38;5282788;28;20034;-80
2021/11/03 05:14:54;;;;;;;5.68;3.50;;;;;;;5.81;100.00;99296.91;5271360;28;20098;-80
2021/11/03 05:17:24;;;;;;;6.05;3.63;;;;;;;5.73;100.00;99299.75;5277651;28;20036;-79
2021/11/03 05:19:54;;;;;;;6.30;4.00;;;;;;;5.58;100.00;99299.47;5291149;28;20019;-80
2021/11/03 05:22:26;;;;;;;6.07;3.60;;;;;;;5.62;100.00;99311.41;5287253;28;20562;-79
2021/11/03 05:24:57;;;;;;;4.10;2.92;;;;;;;5.53;100.00;99311.72;5291833;28;20038;-80
2021/11/03 05:27:27;;;;;;;4.95;3.22;;;;;;;5.54;100.00;99314.25;5290532;28;20110;-79
2021/11/03 05:29:58;;;;;;;6.25;3.42;;;;;;;5.47;100.00;99323.16;5282300;28;20055;-80
2021/11/03 05:32:28;;;;;;;5.43;3.55;;;;;;;5.43;100.00;99325.91;5277755;28;20081;-80
2021/11/03 05:34:59;;;;;;;5.18;2.83;;;;;;;5.24;100.00;99332.63;5281971;28;20034;-80
2021/11/03 05:37:29;;;;;;;5.35;3.05;;;;;;;5.11;100.00;99339.09;5291980;28;20027;-80
2021/11/03 05:39:59;;;;;;;5.53;2.95;;;;;;;5.05;100.00;99336.72;5278271;28;20058;-80
2021/11/03 05:42:29;;;;;;;6.00;3.40;;;;;;;5.00;100.00;99336.00;5290390;28;20039;-79
2021/11/03 05:45:00;;;;;;;5.65;2.90;;;;;;;5.03;100.00;99341.13;5276960;28;20062;-79
2021/11/03 05:47:31;;;;;;;4.70;2.90;;;;;;;4.98;100.00;99335.22;5282309;28;20027;-81
2021/11/03 05:50:03;;;;;;;4.93;2.83;;;;;;;5.02;100.00;99331.66;5279416;28;20045;-80
2021/11/03 05:52:33;;;;;;;4.05;2.70;;;;;;;5.09;100.00;99327.97;5276049;28;20023;-79
2021/11/03 05:55:04;;;;;;;4.53;2.78;;;;;;;4.98;100.00;99332.63;5291978;28;20016;-80
2021/11/03 05:57:36;;;;;;;4.95;3.00;;;;;;;4.90;100.00;99332.06;5292749;28;20027;-81
2021/11/03 06:00:19;;;;;;;4.32;2.60;;;;;;;4.87;100.00;99333.88;5283111;28;20338;-78
2021/11/03 06:02:50;;;;;;;4.28;2.83;;;;;;;4.82;100.00;99351.31;5292471;28;20039;-78
2021/11/03 06:05:21;;;;;;;4.43;2.90;;;;;;;4.79;100.00;99360.00;5281907;28;20023;-80
2021/11/03 06:08:04;;;;;;;4.53;2.72;;;;;;;4.82;100.00;99359.91;5282193;28;20047;-81
2021/11/03 06:10:38;;;;;;;4.68;2.72;;;;;;;5.10;100.00;99368.47;5268588;28;20051;-80
2021/11/03 06:13:09;;;;;;;4.57;2.90;;;;;;;5.08;100.00;99378.03;5287354;28;20491;-80
2021/11/03 06:15:40;;;;;;;4.88;2.65;;;;;;;5.07;100.00;99378.94;5271990;28;20028;-82
2021/11/03 06:18:10;;;;;;;7.07;2.72;;;;;;;5.10;100.00;99372.81;5272829;28;20027;-80
2021/11/03 06:20:41;;;;;;;5.80;2.92;;;;;;;5.00;100.00;99364.50;5275523;28;20083;-80
2021/11/03 06:23:11;;;;;;;5.50;2.35;;;;;;;5.02;100.00;99365.31;5290971;28;20027;-80
2021/11/03 06:25:42;;;;;;;4.95;2.88;;;;;;;4.92;100.00;99368.22;5280667;28;20028;-80
2021/11/03 06:28:12;;;;;;;4.40;2.72;;;;;;;4.99;100.00;99367.97;5279083;28;20407;-80
2021/11/03 06:30:42;;;;;;;5.97;3.20;;;;;;;5.05;100.00;99367.81;5280087;28;20288;-81
2021/11/03 06:33:13;;;;;;;5.57;3.28;;;;;;;4.99;100.00;99365.38;5277247;28;20465;-81
2021/11/03 06:35:45;;;;;;;5.68;3.35;;;;;;;5.11;100.00;99370.19;5278780;28;20326;-81
2021/11/03 06:38:17;;;;;;;4.53;3.03;;;;;;;5.17;100.00;99379.50;5276740;28;20028;-80
2021/11/03 06:40:47;;;;;;;5.93;3.15;;;;;;;5.19;100.00;99382.88;5289118;28;20084;-80
2021/11/03 06:43:18;;;;;;;4.95;2.83;;;;;;;5.20;100.00;99387.16;5272966;28;20023;-81
2021/11/03 06:45:48;;;;;;;4.72;2.90;;;;;;;5.34;100.00;99388.38;5289366;28;20046;-82
2021/11/03 06:48:19;;;;;;;5.63;3.15;;;;;;;5.18;100.00;99402.72;5283736;28;20707;-81
2021/11/03 06:50:51;;;;;;;5.13;3.17;;;;;;;5.18;100.00;99402.72;5265815;28;20572;-80
2021/11/03 06:53:23;;;;;;;4.85;2.63;;;;;;;5.35;100.00;99397.00;5293377;27;20118;-80
2021/11/03 06:55:54;;;;;;;5.03;2.92;;;;;;;5.39;100.00;99402.03;5269650;28;20027;-81
2021/11/03 06:58:25;;;;;;;4.82;3.35;;;;;;;5.47;100.00;99402.63;5285087;28;20035;-81
2021/11/03 07:00:57;;;;;;;4.43;3.22;;;;;;;5.61;100.00;99405.59;5270688;28;20019;-80
2021/11/03 07:03:29;;;;;;;7.25;3.20;;;;;;;5.90;100.00;99401.09;5282725;28;20480;-81
2021/11/03 07:06:00;;;;;;;5.45;3.50;;;;;;;6.00;100.00;99411.97;5283679;28;20055;-80
2021/11/03 07:08:32;;;;;;;5.60;3.30;;;;;;;5.96;100.00;99406.09;5266783;28;20491;-80
2021/11/03 07:11:02;;;;;;;5.88;3.22;;;;;;;5.96;100.00;99415.59;5262992;28;20475;-81
2021/11/03 07:13:34;;;;;;;7.05;3.33;;;;;;;5.92;100.00;99417.44;5286458;28;20080;-80
2021/11/03 07:16:05;;;;;;;6.90;3.50;;;;;;;5.98;100.00;99424.16;5283792;28;20019;-80
2021/11/03 07:18:35;;;;;;;8.07;4.20;;;;;;;6.04;100.00;99422.19;5287868;28;20391;-81
2021/11/03 07:21:06;;;;;;;7.30;3.53;;;;;;;6.05;100.00;99423.88;5276649;28;20032;-81
2021/11/03 07:23:36;;;;;;;7.45;3.75;;;;;;;6.03;100.00;99414.47;5277892;28;20050;-81
2021/11/03 07:26:06;;;;;;;5.80;3.47;;;;;;;6.17;100.00;99417.41;5269847;28;20020;-80
2021/11/03 07:28:38;;;;;;;6.72;3.72;;;;;;;6.07;100.00;99418.66;5277838;28;20191;-80
2021/11/03 07:31:09;;;;;;;6.18;3.85;;;;;;;6.15;100.00;99421.81;5267439;28;20024;-80
2021/11/03 07:33:40;;;;;;;5.88;3.58;;;;;;;6.35;100.00;99415.00;5291186;28;20087;-79
2021/11/03 07:36:15;;;;;;;5.82;3.83;;;;;;;6.40;100.00;99423.44;5287300;28;20028;-80
2021/11/03 07:38:52;;;;;;;6.65;3.70;;;;;;;6.45;100.00;99418.91;5254196;28;20474;-81
2021/11/03 07:41:22;;;;;;;6.07;3.83;;;;;;;6.38;100.00;99427.00;5231548;28;20068;-81
2021/11/03 07:43:53;;;;;;;6.50;3.80;;;;;;;6.41;100.00;99432.09;5221115;28;20044;-82
2021/11/03 07:46:23;;;;;;;5.82;4.00;;;;;;;6.46;100.00;99419.78;5223787;28;20025;-81
2021/11/03 07:48:53;;;;;;;6.05;3.58;;;;;;;6.51;100.00;99418.72;5233594;28;20478;-80
2021/11/03 07:51:24;;;;;;;5.35;3.70;;;;;;;6.68;100.00;99420.66;5231161;28;20467;-81
2021/11/03 07:53:58;;;;;;;6.05;3.80;;;;;;;6.83;100.00;99422.66;5223868;28;20021;-82
2021/11/03 07:56:35;;;;;;;5.95;3.88;;;;;;;6.68;100.00;99434.50;5223056;28;20024;-80
2021/11/03 07:59:07;;;;;;;6.97;4.15;;;;;;;6.69;100.00;99432.72;5234628;28;20025;-83
2021/11/03 08:01:37;;;;;;;7.10;4.13;;;;;;;6.77;100.00;99438.50;5230762;28;20033;-82
2021/11/03 08:04:09;;;;;;;6.97;3.83;;;;;;;6.76;100.00;99435.03;5234453;28;20024;-83
2021/11/03 08:06:40;;;;;;;6.05;3.83;;;;;;;6.81;100.00;99432.25;5233227;28;20071;-83
2021/11/03 08:09:10;;;;;;;9.30;4.43;;;;;;;6.82;100.00;99426.16;5233976;28;20474;-83
2021/11/03 08:11:49;;;;;;;6.50;4.30;;;;;;;6.83;100.00;99433.06;5232756;28;20029;-81
2021/11/03 08:14:26;;;;;;;6.70;4.07;;;;;;;6.99;100.00;99444.53;5218126;28;20037;-83
2021/11/03 08:16:59;;;;;;;7.32;4.00;;;;;;;6.99;100.00;99428.94;5228076;28;20382;-82
2021/11/03 08:19:48;;;;;;;5.60;4.05;;;;;;;7.10;100.00;99426.78;5230957;28;20561;-83
2021/11/03 08:22:23;;;;;;;8.63;4.32;;;;;;;7.08;100.00;99426.00;5228738;28;20167;-82
2021/11/03 08:24:55;;;;;;;6.35;4.00;;;;;;;7.12;100.00;99420.59;5223997;28;20067;-81
2021/11/03 08:27:26;;;;;;;7.70;4.60;;;;;;;7.20;100.00;99425.50;5222335;28;20206;-81
2021/11/03 08:29:57;;;;;;;7.03;4.18;;;;;;;7.22;100.00;99422.75;5233925;28;20040;-81
2021/11/03 08:32:36;;;;;;;6.75;3.95;;;;;;;7.46;100.00;99418.31;5229729;28;20021;-82
2021/11/03 08:35:09;;;;;;;7.43;3.92;;;;;;;7.30;100.00;99420.72;5232591;28;20414;-82
2021/11/03 08:37:40;;;;;;;8.73;4.15;;;;;;;7.29;100.00;99412.97;5232698;28;20448;-82
2021/11/03 08:40:14;;;;;;;7.35;4.13;;;;;;;7.31;100.00;99421.53;5229712;28;20048;-81
2021/11/03 08:42:45;;;;;;;6.60;4.30;;;;;;;7.31;100.00;99411.16;5227843;28;20132;-82
2021/11/03 08:45:16;;;;;;;8.40;4.35;;;;;;;7.40;100.00;99416.84;5222551;28;20049;-79
2021/11/03 08:47:46;;;;;;;6.32;3.95;;;;;;;7.57;100.00;99411.78;5233802;28;20066;-82
2021/11/03 08:50:20;;;;;;;5.82;4.15;;;;;;;7.58;100.00;99408.28;5216922;28;20026;-83
2021/11/03 08:52:52;;;;;;;6.05;4.13;;;;;;;7.71;100.00;99399.03;5220718;28;20028;-83
2021/11/03 08:55:23;;;;;;;6.80;4.18;;;;;;;7.70;100.00;99394.72;5206193;28;20109;-82
2021/11/03 08:57:54;;;;;;;6.20;4.00;;;;;;;7.78;100.00;99397.88;5218006;28;20021;-80
2021/11/03 09:00:29;;;;;;;9.82;4.47;;;;;;;7.79;100.00;99399.56;5212929;28;20108;-82
2021/11/03 09:03:00;;;;;;;7.65;3.90;;;;;;;7.82;100.00;99407.22;5219764;28;20035;-80
2021/11/03 09:05:31;;;;;;;9.05;4.60;;;;;;;7.87;100.00;99405.25;5216944;28;20034;-81
2021/11/03 09:08:02;;;;;;;7.88;4.55;;;;;;;7.91;100.00;99395.56;5220053;28;20092;-82
2021/11/03 09:10:45;;;;;;;7.78;4.45;;;;;;;8.01;100.00;99399.47;5217650;28;20028;-82
2021/11/03 09:13:19;;;;;;;7.30;4.07;;;;;;;8.34;100.00;99387.56;5208177;28;20022;-81
2021/11/03 09:15:50;;;;;;;7.68;4.00;;;;;;;8.23;100.00;99389.81;5203504;28;20403;-82
2021/11/03 09:18:21;;;;;;;7.85;4.40;;;;;;;8.13;100.00;99386.75;5215421;28;20014;-81
2021/11/03 09:20:52;;;;;;;9.77;4.50;;;;;;;8.26;100.00;99382.72;5214203;28;20028;-81
2021/11/03 09:23:24;;;;;;;7.80;4.65;;;;;;;8.78;100.00;99378.53;5201455;28;20068;-83
2021/11/03 09:25:56;;;;;;;6.60;4.05;;;;;;;8.96;100.00;99378.53;5219965;28;20437;-79
2021/11/03 09:28:29;;;;;;;7.47;4.60;;;;;;;8.94;100.00;99377.75;5212231;28;20049;-80
2021/11/03 09:31:05;;;;;;;7.32;4.63;;;;;;;9.07;100.00;99376.22;5220361;28;20060;-82
2021/11/03 09:33:37;;;;;;;7.38;4.63;;;;;;;9.37;100.00;99379.94;5216595;28;20035;-81
2021/11/03 09:36:14;;;;;;;8.02;4.35;;;;;;;9.61;100.00;99394.34;5214211;28;20025;-80
2021/11/03 09:38:45;;;;;;;6.25;4.03;;;;;;;9.82;100.00;99390.66;5214542;28;20712;-83
2021/11/03 09:41:23;;;;;;;6.80;4.10;;;;;;;9.58;100.00;99389.28;5213830;28;20033;-81
2021/11/03 09:44:00;;;;;;;5.30;3.38;;;;;;;9.89;100.00;99381.59;5206558;28;20060;-80
2021/11/03 09:46:44;;;;;;;5.63;3.67;;;;;;;9.65;100.00;99383.69;5208260;28;20314;-82
2021/11/03 09:49:23;;;;;;;6.13;3.90;;;;;;;9.77;100.00;99398.72;5215704;28;20033;-82
2021/11/03 09:51:59;;;;;;;6.82;3.80;;;;;;;9.99;100.00;99406.31;5219135;28;20025;-82
2021/11/03 09:54:34;;;;;;;5.82;3.88;;;;;;;10.14;100.00;99395.09;5205353;28;20041;-80
2021/11/03 09:57:07;;;;;;;5.20;3.58;;;;;;;10.06;100.00;99392.03;5210879;28;20401;-82
2021/11/03 09:59:48;;;;;;;6.50;3.78;;;;;;;10.20;100.00;99392.97;5216669;28;20043;-82
2021/11/03 10:02:47;;;;;;;5.75;3.50;;;;;;;10.23;100.00;99390.22;5215232;28;20025;-83
2021/11/03 10:05:20;;;;;;;8.90;3.70;;;;;;;10.17;100.00;99385.31;5215806;28;20483;-83
2021/11/03 10:07:58;;;;;;;5.20;3.38;;;;;;;10.33;99.06;99380.13;5215891;28;20034;-81
2021/11/03 10:10:39;;;;;;;5.90;3.65;;;;;;;10.47;100.00;99390.66;5212763;28;20049;-83
2021/11/03 10:13:19;;;;;;;4.75;3.15;;;;;;;10.38;100.00;99394.59;5209050;28;20025;-81
2021/11/03 10:16:10;;;;;;;5.55;3.13;;;;;;;10.23;99.29;99394.59;5207769;28;20099;-82
2021/11/03 10:18:58;;;;;;;4.68;3.08;;;;;;;10.40;98.81;99392.78;5208572;28;20029;-82
2021/11/03 10:21:31;;;;;;;4.20;2.90;;;;;;;10.60;97.91;99384.72;5209560;28;20031;-81
2021/11/03 10:24:14;;;;;;;4.45;2.90;;;;;;;10.82;96.30;99384.38;5206431;28;20036;-80
2021/11/03 10:26:52;;;;;;;4.63;3.08;;;;;;;10.90;97.07;99379.56;5213482;28;20031;-82
2021/11/03 10:29:31;;;;;;;4.63;2.50;;;;;;;10.99;96.76;99379.06;5215579;28;20193;-81
2021/11/03 10:32:22;;;;;;;3.28;2.25;;;;;;;10.90;96.23;99376.94;5211211;28;20029;-82
2021/11/03 10:35:15;;;;;;;3.78;2.35;;;;;;;11.23;92.66;99371.50;5215015;28;20083;-81
2021/11/03 10:37:55;;;;;;;3.75;2.03;;;;;;;11.22;92.82;99374.19;5217788;28;20061;-81
2021/11/03 10:40:43;;;;;;;3.03;1.92;;;;;;;11.11;92.35;99371.34;5214017;28;20123;-82
2021/11/03 10:43:28;;;;;;;3.10;2.25;;;;;;;11.31;92.71;99369.25;5203062;28;20029;-81
2021/11/03 10:46:23;;;;;;;4.07;2.50;;;;;;;11.08;93.71;99367.13;5214695;28;20168;-82
2021/11/03 10:49:39;;;;;;;5.03;2.80;;;;;;;10.99;94.32;99365.97;5210933;28;20369;-82
2021/11/03 10:52:23;;;;;;;4.72;2.70;;;;;;;11.27;92.18;99359.09;5214811;28;20128;-81
2021/11/03 10:54:58;;;;;;;6.60;2.70;;;;;;;11.11;92.02;99361.72;5214216;28;20036;-82
2021/11/03 10:57:38;;;;;;;4.47;2.40;;;;;;;11.13;93.57;99354.63;5209769;28;20467;-82
2021/11/03 11:00:25;;;;;;;4.22;2.67;;;;;;;11.12;92.76;99360.78;5215000;28;20033;-82
2021/11/03 11:03:00;;;;;;;3.17;2.22;;;;;;;11.26;92.14;99353.00;5210312;28;20022;-81
2021/11/03 11:05:34;;;;;;;3.78;2.30;;;;;;;11.60;90.69;99350.13;5205864;28;20117;-82
2021/11/03 11:08:17;;;;;;;4.65;2.30;;;;;;;11.58;90.90;99349.38;5208255;28;20720;-82
2021/11/03 11:10:58;;;;;;;4.22;2.30;;;;;;;11.19;92.36;99345.59;5216234;28;20028;-81
2021/11/03 11:13:41;;;;;;;3.45;2.42;;;;;;;11.33;91.94;99341.28;5201036;28;20471;-82
2021/11/03 11:16:14;;;;;;;3.60;2.42;;;;;;;11.12;92.58;99339.88;5215238;28;20471;-81
2021/11/03 11:19:20;;;;;;;3.92;2.13;;;;;;;11.23;92.29;99332.25;5213339;28;20051;-81
2021/11/03 11:21:57;;;;;;;2.97;1.80;;;;;;;11.27;92.17;99338.16;5208090;28;20464;-81
2021/11/03 11:24:33;;;;;;;2.97;2.17;;;;;;;11.31;91.33;99327.41;5196781;28;20064;-82
2021/11/03 11:27:03;;;;;;;3.17;1.85;;;;;;;11.25;90.26;99334.81;5202047;28;20018;-82
2021/11/03 11:30:01;;;;;;;3.80;1.93;;;;;;;11.60;88.67;99326.59;5215962;28;20036;-82
2021/11/03 11:32:50;;;;;;;2.85;1.55;;;;;;;11.80;88.94;99331.47;5206157;28;20773;-82
2021/11/03 11:35:48;;;;;;;2.30;1.60;;;;;;;11.96;87.39;99323.53;5204925;28;20060;-81
2021/11/03 11:38:30;;;;;;;2.38;1.50;;;;;;;11.72;89.07;99328.47;5211722;28;20025;-82
2021/11/03 11:41:28;;;;;;;1.95;1.40;;;;;;;11.46;89.34;99321.28;5205895;28;20030;-82
2021/11/03 11:44:13;;;;;;;2.75;1.33;;;;;;;11.54;87.35;99329.53;5199044;28;20021;-80
2021/11/03 11:46:47;;;;;;;3.00;1.35;;;;;;;11.80;87.23;99322.78;5208441;28;20049;-81
2021/11/03 11:49:22;;;;;;;2.00;1.35;;;;;;;11.51;88.73;99318.41;5209831;28;20025;-81
2021/11/03 11:51:57;;;;;;;2.13;1.30;;;;;;;11.28;89.63;99326.78;5208526;28;20136;-82
2021/11/03 11:54:41;;;;;;;1.92;1.50;;;;;;;11.34;87.78;99319.41;5202945;28;20029;-82
2021/11/03 11:57:11;;;;;;;1.63;0.88;;;;;;;11.37;87.34;99315.75;5211260;28;20391;-82
2021/11/03 12:00:12;;;;;;;2.80;0.87;;;;;;;11.37;85.43;99319.22;5212332;28;20037;-82
2021/11/03 12:02:52;;;;;;;1.02;0.80;;;;;;;11.58;83.22;99310.13;5212323;28;20286;-81
2021/11/03 12:05:43;;;;;;;2.03;1.00;;;;;;;11.58;84.95;99304.91;5213832;28;20104;-81
2021/11/03 12:08:20;;;;;;;2.70;1.20;;;;;;;11.45;86.76;99303.91;5211004;28;20028;-81